Meteo Giornale » Osservazioni meteo Stati Uniti (USA) » Tucson
ore: 22:53 - Osservazioni Meteo Tucson
Lat. 32° 7' N Lon. 110° 57' W Alt. 805 metri s.l.m.
24 °C
Sereno
Temp. 24 Ore
20 °C
30 °C
Sud-Est
9.3 Km/h
Dew point 18 °C
Umidità 69 %
Visibilità 10 Km
Il sole sorge alle ore 05:58
Il sole tramonta alle ore 18:49
| Data e Ora | Cielo e Fenomeni | T °C | DP °C | Um. % | Pres. hPa | Vis. km | Vento km/h | |
|---|---|---|---|---|---|---|---|---|
| Oggi h: 22:53 | Sereno | 24 | 18 | 69 | 1018 | 10 | SE 9.3 | |
| Oggi h: 21:53 | Sereno | 24 | 19 | 73 | 1018 | 10 | E/SE 11.1 | |
| Oggi h: 20:53 | Sereno | 26 | 19 | 65 | 1018 | 10 | SE 13 | |
| Oggi h: 19:53 | Sereno | 26 | 19 | 65 | 1017 | 10 | SE 9.3 | |
| Oggi h: 18:53 | Sereno | 26 | 19 | 65 | 1016 | 10 | E 7.4 | |
| Oggi h: 17:53 | Sereno | 26 | 18 | 61 | 1015 | 10 | N 5.5 | |
| Oggi h: 16:53 | Sereno | 27 | 18 | 57 | 1015 | 10 | E 16.7 | |
| Oggi h: 15:53 | Sereno | 24 | 20 | 78 | 1016 | 10 | N 9.3 | |
| Oggi h: 14:53 | Sereno | 23 | 20 | 83 | 1017 | 10 | S/SE 11.1 | |
| Oggi h: 13:53 | Pioggia | 21 | 19 | 88 | 1019 | 10 | N 5.5 | |
| Oggi h: 13:04 | Pioggia Foschia | 21 | 19 | 88 | 1020 | 6 | N 5.5 | |
| Oggi h: 12:53 | Pioggia Foschia | 21 | 18 | 82 | 1021 | 6 | E/SE 14.8 | |
| Oggi h: 12:09 | Temporale nelle vicinanze Foschia | 20 | 19 | 93 | 1021 | 10 | E/NE 9.3 | |
| Oggi h: 12:00 | Foschia | 20 | 18 | 88 | 1021 | 10 | N/NE 13 | |
| Oggi h: 11:53 | Foschia | 20 | 18 | 88 | 1021 | 3 | NE 9.3 | |
| Oggi h: 11:40 | Foschia | 20 | 18 | 88 | 1021 | 3 | N/NO 18.5 | |
| Oggi h: 11:13 | Temporale nelle vicinanze Foschia | 20 | 19 | 93 | 1021 | 3 | N/NO 27.8 | |
| Oggi h: 11:02 | Temporale Foschia | 21 | 19 | 88 | 1021 | 3 | O/NO 20.3 | |
| Oggi h: 10:53 | Temporale | 21 | 19 | 88 | 1021 | 11 | NO 25.9 | |
| Oggi h: 10:45 | Temporale | 21 | 19 | 88 | 1021 | 10 | O/NO 14.8 | |
| Oggi h: 10:28 | Temporale nelle vicinanze | 22 | 20 | 88 | 1020 | 10 | O 24 | |
| Oggi h: 09:53 | Pioggia | 22 | 19 | 83 | 1020 | 8 | O/NO 27.8 | |
| Oggi h: 09:14 | Molto Nuvoloso | 25 | 18 | 65 | 1019 | 10 | O 11.1 | |
| Oggi h: 08:53 | Molto Nuvoloso | 24 | 19 | 73 | 1018 | 10 | O/SO 7.4 | |
| Oggi h: 07:53 | Poco Nuvoloso | 22 | 19 | 83 | 1018 | 10 | S 18.5 | |
| Oggi h: 06:53 | Sereno | 22 | 19 | 83 | 1018 | 10 | S/SO 9.3 | |
| Oggi h: 06:29 | Nuvoloso | 21 | 19 | 88 | 1018 | 10 | O/NO 9.3 | |
| Oggi h: 06:14 | Temporale nelle vicinanze Pioggia | 21 | 19 | 88 | 1018 | 10 | N 9.3 | |
| Oggi h: 06:02 | Pioggia | 21 | 19 | 88 | 1018 | 10 | N 16.7 | |
| Oggi h: 05:53 | Temporale nelle vicinanze Pioggia | 21 | 20 | 94 | 1018 | 10 | N 22.2 | |
| Oggi h: 04:53 | Temporale | 22 | 19 | 83 | 1017 | 14 | NO 18.5 | |
| Oggi h: 04:43 | Temporale Foschia | 21 | 19 | 88 | 1017 | 3 | O/NO 20.3 | |
| Oggi h: 04:21 | Temporale | 22 | 19 | 83 | 1017 | 10 | O 29.6 | |
| Oggi h: 04:12 | Coperto | 23 | 18 | 73 | 1017 | 10 | O 40.7 | |
| Oggi h: 03:53 | Nuvoloso | 28 | 17 | 51 | 1016 | 10 | O/SO 33.3 | |
| Oggi h: 02:53 | Sereno | 28 | 17 | 51 | 1014 | 10 | S 13 | |
| Oggi h: 01:53 | Sereno | 29 | 16 | 45 | 1015 | 10 | S 13 | |
| Oggi h: 00:53 | Sereno | 30 | 17 | 45 | 1015 | 10 | N 0 | |
| Ieri h: 23:53 | Sereno | 30 | 17 | 45 | 1015 | 10 | N 0 | |



